sensor_id;sensor_type;location;lat;lon;timestamp;pressure;altitude;pressure_sealevel;temperature;humidity
72308;BME280;60257;42.638;23.376;2022-07-10T00:01:49;94512.56;;;16.14;76.95
72308;BME280;60257;42.638;23.376;2022-07-10T00:04:15;94502.34;;;16.18;76.88
72308;BME280;60257;42.638;23.376;2022-07-10T00:06:40;94508.72;;;16.36;75.81
72308;BME280;60257;42.638;23.376;2022-07-10T00:09:08;94512.94;;;16.09;77.03
72308;BME280;60257;42.638;23.376;2022-07-10T00:11:33;94512.94;;;16.01;77.50
72308;BME280;60257;42.638;23.376;2022-07-10T00:13:59;94509.00;;;16.06;77.18
72308;BME280;60257;42.638;23.376;2022-07-10T00:16:24;94518.03;;;15.96;77.79
72308;BME280;60257;42.638;23.376;2022-07-10T00:18:50;94513.75;;;16.13;77.52
72308;BME280;60257;42.638;23.376;2022-07-10T00:21:16;94505.44;;;15.98;77.79
72308;BME280;60257;42.638;23.376;2022-07-10T00:23:42;94504.34;;;16.17;77.06
72308;BME280;60257;42.638;23.376;2022-07-10T00:26:07;94503.97;;;16.22;76.66
72308;BME280;60257;42.638;23.376;2022-07-10T00:28:34;94495.69;;;16.26;76.74
72308;BME280;60257;42.638;23.376;2022-07-10T00:31:02;94498.41;;;16.12;76.86
72308;BME280;60257;42.638;23.376;2022-07-10T00:33:27;94498.03;;;16.20;76.70
72308;BME280;60257;42.638;23.376;2022-07-10T00:35:53;94491.69;;;16.13;76.92
72308;BME280;60257;42.638;23.376;2022-07-10T00:38:19;94492.84;;;16.04;77.07
72308;BME280;60257;42.638;23.376;2022-07-10T00:40:44;94495.13;;;15.81;77.96
72308;BME280;60257;42.638;23.376;2022-07-10T00:43:10;94488.41;;;15.75;78.56
72308;BME280;60257;42.638;23.376;2022-07-10T00:45:36;94481.78;;;15.94;77.85
72308;BME280;60257;42.638;23.376;2022-07-10T00:48:02;94490.47;;;15.96;77.69
72308;BME280;60257;42.638;23.376;2022-07-10T00:50:28;94486.47;;;15.79;nan
72308;BME280;60257;42.638;23.376;2022-07-10T00:52:54;94486.56;;;16.00;77.34
72308;BME280;60257;42.638;23.376;2022-07-10T00:55:21;94479.81;;;15.87;77.63
72308;BME280;60257;42.638;23.376;2022-07-10T00:57:47;94481.00;;;15.86;78.11
72308;BME280;60257;42.638;23.376;2022-07-10T01:00:13;94485.28;;;15.77;78.31
72308;BME280;60257;42.638;23.376;2022-07-10T01:02:43;94475.00;;;15.70;78.47
72308;BME280;60257;42.638;23.376;2022-07-10T01:05:09;94474.69;;;15.82;77.84
72308;BME280;60257;42.638;23.376;2022-07-10T01:07:35;94472.69;;;15.79;78.36
72308;BME280;60257;42.638;23.376;2022-07-10T01:10:02;94476.59;;;15.68;78.81
72308;BME280;60257;42.638;23.376;2022-07-10T01:12:28;94480.53;;;15.74;78.48
72308;BME280;60257;42.638;23.376;2022-07-10T01:14:54;94472.31;;;15.81;77.88
72308;BME280;60257;42.638;23.376;2022-07-10T01:17:20;94471.19;;;15.92;77.58
72308;BME280;60257;42.638;23.376;2022-07-10T01:19:46;94465.16;;;15.69;78.26
72308;BME280;60257;42.638;23.376;2022-07-10T01:22:11;94463.94;;;15.59;78.44
72308;BME280;60257;42.638;23.376;2022-07-10T01:24:37;94469.50;;;15.74;78.09
72308;BME280;60257;42.638;23.376;2022-07-10T01:27:03;94466.41;;;15.82;77.72
72308;BME280;60257;42.638;23.376;2022-07-10T01:29:29;94469.56;;;15.81;77.70
72308;BME280;60257;42.638;23.376;2022-07-10T01:31:54;94465.25;;;15.90;77.45
72308;BME280;60257;42.638;23.376;2022-07-10T01:34:20;94470.81;;;16.01;76.83
72308;BME280;60257;42.638;23.376;2022-07-10T01:36:46;94458.97;;;15.93;76.93
72308;BME280;60257;42.638;23.376;2022-07-10T01:39:12;94448.72;;;15.87;77.36
72308;BME280;60257;42.638;23.376;2022-07-10T01:41:37;94437.63;;;15.69;78.17
72308;BME280;60257;42.638;23.376;2022-07-10T01:44:03;94442.75;;;15.74;77.93
72308;BME280;60257;42.638;23.376;2022-07-10T01:46:28;94447.84;;;15.65;78.10
72308;BME280;60257;42.638;23.376;2022-07-10T01:48:54;94447.09;;;15.68;78.02
72308;BME280;60257;42.638;23.376;2022-07-10T01:51:20;94447.03;;;15.61;78.34
72308;BME280;60257;42.638;23.376;2022-07-10T01:53:46;94439.53;;;15.51;78.73
72308;BME280;60257;42.638;23.376;2022-07-10T01:56:12;94438.38;;;15.55;78.94
72308;BME280;60257;42.638;23.376;2022-07-10T01:58:39;94438.00;;;15.64;78.32
72308;BME280;60257;42.638;23.376;2022-07-10T02:01:05;94436.78;;;15.54;78.28
72308;BME280;60257;42.638;23.376;2022-07-10T02:03:30;94444.66;;;15.59;78.28
72308;BME280;60257;42.638;23.376;2022-07-10T02:06:15;94445.47;;;15.60;77.98
72308;BME280;60257;42.638;23.376;2022-07-10T02:08:40;94440.00;;;15.67;77.98
72308;BME280;60257;42.638;23.376;2022-07-10T02:11:06;94431.69;;;15.60;77.76
72308;BME280;60257;42.638;23.376;2022-07-10T02:13:31;94436.41;;;15.52;78.26
72308;BME280;60257;42.638;23.376;2022-07-10T02:15:57;94430.09;;;15.55;78.28
72308;BME280;60257;42.638;23.376;2022-07-10T02:18:23;94436.78;;;15.51;78.17
72308;BME280;60257;42.638;23.376;2022-07-10T02:20:48;94429.75;;;15.64;77.88
72308;BME280;60257;42.638;23.376;2022-07-10T02:23:14;94426.66;;;15.76;76.87
72308;BME280;60257;42.638;23.376;2022-07-10T02:25:40;94427.03;;;15.68;77.43
72308;BME280;60257;42.638;23.376;2022-07-10T02:28:05;94428.13;;;15.56;77.71
72308;BME280;60257;42.638;23.376;2022-07-10T02:30:31;94431.19;;;15.40;78.50
72308;BME280;60257;42.638;23.376;2022-07-10T02:32:56;94434.81;;;15.55;78.03
72308;BME280;60257;42.638;23.376;2022-07-10T02:35:22;94415.09;;;15.49;77.82
72308;BME280;60257;42.638;23.376;2022-07-10T02:37:47;94433.69;;;15.67;77.23
72308;BME280;60257;42.638;23.376;2022-07-10T02:40:13;94442.63;;;15.49;77.90
72308;BME280;60257;42.638;23.376;2022-07-10T02:42:38;94439.84;;;15.39;78.54
72308;BME280;60257;42.638;23.376;2022-07-10T02:45:04;94437.47;;;15.41;78.68
72308;BME280;60257;42.638;23.376;2022-07-10T02:47:30;94434.00;;;15.51;78.48
72308;BME280;60257;42.638;23.376;2022-07-10T02:49:55;94441.53;;;15.61;77.78
72308;BME280;60257;42.638;23.376;2022-07-10T02:52:21;94447.38;;;15.49;78.31
72308;BME280;60257;42.638;23.376;2022-07-10T02:54:46;94446.53;;;15.41;78.89
72308;BME280;60257;42.638;23.376;2022-07-10T02:57:12;94439.00;;;15.28;79.30
72308;BME280;60257;42.638;23.376;2022-07-10T02:59:37;94449.63;;;15.29;79.30
72308;BME280;60257;42.638;23.376;2022-07-10T03:02:03;94451.66;;;15.43;78.72
72308;BME280;60257;42.638;23.376;2022-07-10T03:04:29;94454.41;;;15.46;78.02
72308;BME280;60257;42.638;23.376;2022-07-10T03:06:54;94445.66;;;15.30;78.57
72308;BME280;60257;42.638;23.376;2022-07-10T03:09:19;94446.88;;;15.33;78.64
72308;BME280;60257;42.638;23.376;2022-07-10T03:11:45;94442.13;;;15.30;78.80
72308;BME280;60257;42.638;23.376;2022-07-10T03:14:10;94454.34;;;15.36;78.29
72308;BME280;60257;42.638;23.376;2022-07-10T03:16:36;94442.09;;;15.23;78.77
72308;BME280;60257;42.638;23.376;2022-07-10T03:19:02;94461.81;;;15.35;78.09
72308;BME280;60257;42.638;23.376;2022-07-10T03:21:28;94466.69;;;15.52;77.74
72308;BME280;60257;42.638;23.376;2022-07-10T03:23:55;94466.69;;;15.59;77.50
72308;BME280;60257;42.638;23.376;2022-07-10T03:26:20;94463.97;;;15.63;77.09
72308;BME280;60257;42.638;23.376;2022-07-10T03:28:46;94465.94;;;15.63;76.97
72308;BME280;60257;42.638;23.376;2022-07-10T03:31:11;94470.28;;;15.67;77.32
72308;BME280;60257;42.638;23.376;2022-07-10T03:33:37;94457.28;;;15.64;77.06
72308;BME280;60257;42.638;23.376;2022-07-10T03:36:04;94470.59;;;15.55;77.79
72308;BME280;60257;42.638;23.376;2022-07-10T03:38:30;94464.09;;;15.91;76.41
72308;BME280;60257;42.638;23.376;2022-07-10T03:40:55;94462.09;;;15.81;76.56
72308;BME280;60257;42.638;23.376;2022-07-10T03:43:21;94461.72;;;15.83;76.70
72308;BME280;60257;42.638;23.376;2022-07-10T03:45:46;94461.75;;;16.00;75.78
72308;BME280;60257;42.638;23.376;2022-07-10T03:48:12;94458.16;;;15.82;76.72
72308;BME280;60257;42.638;23.376;2022-07-10T03:50:37;94458.97;;;15.93;75.72
72308;BME280;60257;42.638;23.376;2022-07-10T03:53:03;94449.56;;;16.01;75.78
72308;BME280;60257;42.638;23.376;2022-07-10T03:55:28;94449.44;;;15.70;76.96
72308;BME280;60257;42.638;23.376;2022-07-10T03:57:53;94450.28;;;15.81;77.01
72308;BME280;60257;42.638;23.376;2022-07-10T04:00:20;94444.34;;;15.68;76.82
72308;BME280;60257;42.638;23.376;2022-07-10T04:02:47;94456.19;;;15.86;76.68
72308;BME280;60257;42.638;23.376;2022-07-10T04:05:14;94449.53;;;15.94;76.08
72308;BME280;60257;42.638;23.376;2022-07-10T04:07:39;94449.53;;;15.91;76.17
72308;BME280;60257;42.638;23.376;2022-07-10T04:10:05;94447.59;;;16.06;75.84
72308;BME280;60257;42.638;23.376;2022-07-10T04:12:31;94442.47;;;16.04;75.83
72308;BME280;60257;42.638;23.376;2022-07-10T04:14:56;94442.13;;;16.16;75.29
72308;BME280;60257;42.638;23.376;2022-07-10T04:17:22;94443.28;;;16.15;75.26
72308;BME280;60257;42.638;23.376;2022-07-10T04:19:47;94445.66;;;16.17;75.09
72308;BME280;60257;42.638;23.376;2022-07-10T04:22:13;94446.00;;;15.97;75.66
72308;BME280;60257;42.638;23.376;2022-07-10T04:24:38;94432.28;;;16.15;75.06
72308;BME280;60257;42.638;23.376;2022-07-10T04:27:04;94437.38;;;16.13;75.20
72308;BME280;60257;42.638;23.376;2022-07-10T04:29:30;94423.59;;;16.10;74.86
72308;BME280;60257;42.638;23.376;2022-07-10T04:31:57;94433.03;;;16.09;75.60
72308;BME280;60257;42.638;23.376;2022-07-10T04:34:23;94432.28;;;16.15;75.35
72308;BME280;60257;42.638;23.376;2022-07-10T04:36:48;94429.53;;;16.29;74.22
72308;BME280;60257;42.638;23.376;2022-07-10T04:39:14;94434.66;;;16.20;74.92
72308;BME280;60257;42.638;23.376;2022-07-10T04:41:39;94428.75;;;16.39;73.97
72308;BME280;60257;42.638;23.376;2022-07-10T04:44:05;94430.75;;;16.57;73.19
72308;BME280;60257;42.638;23.376;2022-07-10T04:46:30;94435.91;;;16.69;73.00
72308;BME280;60257;42.638;23.376;2022-07-10T04:48:56;94437.88;;;16.68;72.85
72308;BME280;60257;42.638;23.376;2022-07-10T04:51:21;94432.38;;;16.75;72.87
72308;BME280;60257;42.638;23.376;2022-07-10T04:53:48;94428.81;;;16.82;72.13
72308;BME280;60257;42.638;23.376;2022-07-10T04:56:14;94428.41;;;16.94;72.03
72308;BME280;60257;42.638;23.376;2022-07-10T04:58:39;94426.84;;;17.00;70.94
72308;BME280;60257;42.638;23.376;2022-07-10T05:01:05;94433.91;;;17.12;71.14
72308;BME280;60257;42.638;23.376;2022-07-10T05:03:30;94435.47;;;17.20;70.38
72308;BME280;60257;42.638;23.376;2022-07-10T05:05:56;94430.25;;;17.50;68.78
72308;BME280;60257;42.638;23.376;2022-07-10T05:08:21;94432.25;;;17.43;69.76
72308;BME280;60257;42.638;23.376;2022-07-10T05:10:47;94436.56;;;17.51;68.47
72308;BME280;60257;42.638;23.376;2022-07-10T05:13:12;94441.72;;;17.42;68.49
72308;BME280;60257;42.638;23.376;2022-07-10T05:15:39;94433.53;;;17.10;69.96
72308;BME280;60257;42.638;23.376;2022-07-10T05:18:04;94410.66;;;17.09;70.12
72308;BME280;60257;42.638;23.376;2022-07-10T05:20:30;94431.50;;;17.31;69.80
72308;BME280;60257;42.638;23.376;2022-07-10T05:22:56;94440.13;;;17.62;68.54
72308;BME280;60257;42.638;23.376;2022-07-10T05:25:21;94427.84;;;17.77;66.89
72308;BME280;60257;42.638;23.376;2022-07-10T05:27:47;94431.78;;;17.76;67.05
72308;BME280;60257;42.638;23.376;2022-07-10T05:30:13;94420.72;;;17.76;66.98
72308;BME280;60257;42.638;23.376;2022-07-10T05:32:45;94421.97;;;17.68;66.92
72308;BME280;60257;42.638;23.376;2022-07-10T05:35:11;94425.03;;;17.84;66.70
72308;BME280;60257;42.638;23.376;2022-07-10T05:37:37;94421.09;;;17.82;67.08
72308;BME280;60257;42.638;23.376;2022-07-10T05:40:03;94432.13;;;17.89;66.48
72308;BME280;60257;42.638;23.376;2022-07-10T05:42:29;94428.28;;;17.68;67.50
72308;BME280;60257;42.638;23.376;2022-07-10T05:44:54;94419.56;;;17.70;68.01
72308;BME280;60257;42.638;23.376;2022-07-10T05:47:20;94439.22;;;17.93;66.72
72308;BME280;60257;42.638;23.376;2022-07-10T05:49:45;94420.22;;;18.02;66.22
72308;BME280;60257;42.638;23.376;2022-07-10T05:52:11;94426.59;;;17.89;67.05
72308;BME280;60257;42.638;23.376;2022-07-10T05:54:37;94426.16;;;17.97;66.14
72308;BME280;60257;42.638;23.376;2022-07-10T05:57:02;94418.59;;;18.08;66.63
72308;BME280;60257;42.638;23.376;2022-07-10T05:59:28;94427.22;;;18.21;66.11
72308;BME280;60257;42.638;23.376;2022-07-10T06:01:53;94425.53;;;18.38;65.95
72308;BME280;60257;42.638;23.376;2022-07-10T06:04:19;94431.00;;;18.55;65.79
72308;BME280;60257;42.638;23.376;2022-07-10T06:06:44;94429.25;;;18.76;65.43
72308;BME280;60257;42.638;23.376;2022-07-10T06:09:11;94419.16;;;18.99;63.55
72308;BME280;60257;42.638;23.376;2022-07-10T06:11:37;94427.75;;;19.12;62.63
72308;BME280;60257;42.638;23.376;2022-07-10T06:14:02;94423.94;;;19.36;62.01
72308;BME280;60257;42.638;23.376;2022-07-10T06:16:28;94433.34;;;19.50;61.29
72308;BME280;60257;42.638;23.376;2022-07-10T06:18:53;94430.28;;;19.37;61.22
72308;BME280;60257;42.638;23.376;2022-07-10T06:21:19;94428.72;;;19.32;61.13
72308;BME280;60257;42.638;23.376;2022-07-10T06:23:47;94418.84;;;19.31;61.58
72308;BME280;60257;42.638;23.376;2022-07-10T06:26:12;94423.13;;;19.39;60.66
72308;BME280;60257;42.638;23.376;2022-07-10T06:28:38;94420.38;;;19.39;60.39
72308;BME280;60257;42.638;23.376;2022-07-10T06:31:04;94416.81;;;19.35;61.89
72308;BME280;60257;42.638;23.376;2022-07-10T06:33:30;94416.38;;;19.44;61.65
72308;BME280;60257;42.638;23.376;2022-07-10T06:35:57;94408.41;;;19.50;60.74
72308;BME280;60257;42.638;23.376;2022-07-10T06:38:23;94417.38;;;19.61;60.15
72308;BME280;60257;42.638;23.376;2022-07-10T06:40:49;94419.28;;;19.67;60.59
72308;BME280;60257;42.638;23.376;2022-07-10T06:43:15;94423.19;;;19.70;59.95
72308;BME280;60257;42.638;23.376;2022-07-10T06:45:40;94420.91;;;19.95;58.04
72308;BME280;60257;42.638;23.376;2022-07-10T06:48:07;94420.75;;;19.75;59.33
72308;BME280;60257;42.638;23.376;2022-07-10T06:50:32;94406.69;;;19.63;59.23
72308;BME280;60257;42.638;23.376;2022-07-10T06:53:00;94410.94;;;19.71;58.82
72308;BME280;60257;42.638;23.376;2022-07-10T06:55:26;94414.16;;;19.66;58.44
72308;BME280;60257;42.638;23.376;2022-07-10T06:57:52;94412.56;;;19.68;59.54
72308;BME280;60257;42.638;23.376;2022-07-10T07:00:17;94408.38;;;19.87;58.93
72308;BME280;60257;42.638;23.376;2022-07-10T07:02:43;94409.47;;;19.93;58.04
72308;BME280;60257;42.638;23.376;2022-07-10T07:05:09;94408.78;;;20.16;58.08
72308;BME280;60257;42.638;23.376;2022-07-10T07:07:35;94407.25;;;20.11;56.92
72308;BME280;60257;42.638;23.376;2022-07-10T07:10:02;94410.94;;;20.01;58.01
72308;BME280;60257;42.638;23.376;2022-07-10T07:12:28;94407.44;;;19.97;57.32
72308;BME280;60257;42.638;23.376;2022-07-10T07:14:54;94404.56;;;19.74;58.36
72308;BME280;60257;42.638;23.376;2022-07-10T07:17:19;94406.16;;;19.71;58.29
72308;BME280;60257;42.638;23.376;2022-07-10T07:19:51;94411.03;;;19.60;59.12
72308;BME280;60257;42.638;23.376;2022-07-10T07:22:36;94399.94;;;19.64;58.63
72308;BME280;60257;42.638;23.376;2022-07-10T07:25:20;94408.66;;;19.62;58.14
72308;BME280;60257;42.638;23.376;2022-07-10T07:27:46;94414.94;;;19.66;58.82
72308;BME280;60257;42.638;23.376;2022-07-10T07:30:13;94414.75;;;19.84;57.92
72308;BME280;60257;42.638;23.376;2022-07-10T07:32:43;94409.75;;;20.02;57.60
72308;BME280;60257;42.638;23.376;2022-07-10T07:35:10;94405.91;;;19.93;58.31
72308;BME280;60257;42.638;23.376;2022-07-10T07:37:44;94411.34;;;20.03;58.28
72308;BME280;60257;42.638;23.376;2022-07-10T07:40:13;94404.88;;;20.10;57.60
72308;BME280;60257;42.638;23.376;2022-07-10T07:42:39;94400.53;;;20.09;57.93
72308;BME280;60257;42.638;23.376;2022-07-10T07:45:06;94407.97;;;20.15;58.62
72308;BME280;60257;42.638;23.376;2022-07-10T07:50:09;94413.53;;;20.15;59.15
72308;BME280;60257;42.638;23.376;2022-07-10T07:52:35;94409.09;;;20.52;56.92
72308;BME280;60257;42.638;23.376;2022-07-10T07:55:01;94412.91;;;20.61;56.92
72308;BME280;60257;42.638;23.376;2022-07-10T07:57:26;94416.34;;;20.69;55.23
72308;BME280;60257;42.638;23.376;2022-07-10T07:59:52;94408.66;;;20.80;54.17
72308;BME280;60257;42.638;23.376;2022-07-10T08:02:17;94397.16;;;20.78;54.89
72308;BME280;60257;42.638;23.376;2022-07-10T08:04:43;94403.81;;;20.84;54.42
72308;BME280;60257;42.638;23.376;2022-07-10T08:07:08;94403.34;;;20.89;55.03
72308;BME280;60257;42.638;23.376;2022-07-10T08:09:34;94397.06;;;20.85;55.88
72308;BME280;60257;42.638;23.376;2022-07-10T08:12:00;94399.13;;;21.04;55.71
72308;BME280;60257;42.638;23.376;2022-07-10T08:14:26;94391.03;;;21.13;53.75
72308;BME280;60257;42.638;23.376;2022-07-10T08:16:51;94402.63;;;20.85;54.97
72308;BME280;60257;42.638;23.376;2022-07-10T08:19:17;94398.44;;;20.97;54.20
72308;BME280;60257;42.638;23.376;2022-07-10T08:21:43;94402.88;;;21.17;53.61
72308;BME280;60257;42.638;23.376;2022-07-10T08:24:09;94397.19;;;21.25;54.03
72308;BME280;60257;42.638;23.376;2022-07-10T08:26:34;94405.13;;;21.46;54.02
72308;BME280;60257;42.638;23.376;2022-07-10T08:28:59;94400.59;;;21.55;53.18
72308;BME280;60257;42.638;23.376;2022-07-10T08:31:25;94402.81;;;21.84;50.42
72308;BME280;60257;42.638;23.376;2022-07-10T08:33:50;94404.75;;;21.87;50.75
72308;BME280;60257;42.638;23.376;2022-07-10T08:36:17;94408.09;;;21.78;50.79
72308;BME280;60257;42.638;23.376;2022-07-10T08:38:43;94407.59;;;21.83;50.49
72308;BME280;60257;42.638;23.376;2022-07-10T08:41:10;94412.91;;;21.97;49.56
72308;BME280;60257;42.638;23.376;2022-07-10T08:43:37;94405.31;;;22.18;49.98
72308;BME280;60257;42.638;23.376;2022-07-10T08:46:05;94411.22;;;22.20;49.65
72308;BME280;60257;42.638;23.376;2022-07-10T08:48:32;94395.13;;;22.11;49.50
72308;BME280;60257;42.638;23.376;2022-07-10T08:51:03;94403.03;;;22.13;50.16
72308;BME280;60257;42.638;23.376;2022-07-10T08:53:31;94400.19;;;22.68;47.84
72308;BME280;60257;42.638;23.376;2022-07-10T08:55:58;94401.97;;;22.07;49.76
72308;BME280;60257;42.638;23.376;2022-07-10T08:58:24;94394.63;;;21.96;49.94
72308;BME280;60257;42.638;23.376;2022-07-10T09:00:51;94388.44;;;22.09;50.08
72308;BME280;60257;42.638;23.376;2022-07-10T09:03:17;94392.03;;;21.86;49.06
72308;BME280;60257;42.638;23.376;2022-07-10T09:05:42;94399.47;;;21.92;48.69
72308;BME280;60257;42.638;23.376;2022-07-10T09:08:27;94384.66;;;22.35;46.64
72308;BME280;60257;42.638;23.376;2022-07-10T09:11:17;94387.94;;;22.14;47.84
72308;BME280;60257;42.638;23.376;2022-07-10T09:13:50;94388.47;;;22.25;48.17
72308;BME280;60257;42.638;23.376;2022-07-10T09:16:21;94389.09;;;22.48;47.45
72308;BME280;60257;42.638;23.376;2022-07-10T09:18:47;94388.69;;;22.50;47.46
72308;BME280;60257;42.638;23.376;2022-07-10T09:21:12;94375.41;;;22.58;46.81
72308;BME280;60257;42.638;23.376;2022-07-10T09:23:38;94374.56;;;22.77;46.49
72308;BME280;60257;42.638;23.376;2022-07-10T09:26:04;94387.28;;;22.58;46.52
72308;BME280;60257;42.638;23.376;2022-07-10T09:28:29;94386.88;;;22.60;46.93
72308;BME280;60257;42.638;23.376;2022-07-10T09:30:56;94384.09;;;22.60;46.66
72308;BME280;60257;42.638;23.376;2022-07-10T09:33:29;94376.06;;;22.81;46.78
72308;BME280;60257;42.638;23.376;2022-07-10T09:36:04;94373.16;;;22.85;45.36
72308;BME280;60257;42.638;23.376;2022-07-10T09:45:43;94370.06;;;23.28;45.83
72308;BME280;60257;42.638;23.376;2022-07-10T09:48:09;94362.88;;;22.98;45.98
72308;BME280;60257;42.638;23.376;2022-07-10T09:50:35;94369.06;;;23.06;47.13
72308;BME280;60257;42.638;23.376;2022-07-10T09:53:08;94361.06;;;23.37;44.61
72308;BME280;60257;42.638;23.376;2022-07-10T09:55:37;94357.75;;;23.42;44.21
72308;BME280;60257;42.638;23.376;2022-07-10T09:58:08;94349.22;;;23.04;44.92
72308;BME280;60257;42.638;23.376;2022-07-10T10:00:36;94350.78;;;23.05;45.55
72308;BME280;60257;42.638;23.376;2022-07-10T10:03:04;94358.94;;;23.28;45.04
72308;BME280;60257;42.638;23.376;2022-07-10T10:05:45;94348.28;;;23.55;45.41
72308;BME280;60257;42.638;23.376;2022-07-10T10:10:45;94352.81;;;23.49;46.28
72308;BME280;60257;42.638;23.376;2022-07-10T10:13:23;94356.28;;;23.53;45.01
72308;BME280;60257;42.638;23.376;2022-07-10T10:15:51;94344.09;;;23.47;44.18
72308;BME280;60257;42.638;23.376;2022-07-10T10:18:20;94347.56;;;23.51;44.84
72308;BME280;60257;42.638;23.376;2022-07-10T10:20:49;94344.63;;;23.71;43.83
72308;BME280;60257;42.638;23.376;2022-07-10T10:23:17;94339.72;;;23.75;43.73
72308;BME280;60257;42.638;23.376;2022-07-10T10:25:44;94345.66;;;23.77;43.38
72308;BME280;60257;42.638;23.376;2022-07-10T10:28:18;94334.94;;;24.17;42.85
72308;BME280;60257;42.638;23.376;2022-07-10T10:30:54;94329.53;;;24.10;42.05
72308;BME280;60257;42.638;23.376;2022-07-10T10:36:01;94321.66;;;24.46;42.17
72308;BME280;60257;42.638;23.376;2022-07-10T10:46:54;94339.41;;;24.90;41.75
72308;BME280;60257;42.638;23.376;2022-07-10T10:49:24;94329.13;;;25.00;41.38
72308;BME280;60257;42.638;23.376;2022-07-10T10:52:03;94329.84;;;25.13;41.28
72308;BME280;60257;42.638;23.376;2022-07-10T10:57:34;94329.47;;;25.02;40.48
72308;BME280;60257;42.638;23.376;2022-07-10T11:00:12;94320.19;;;24.80;42.14
72308;BME280;60257;42.638;23.376;2022-07-10T11:02:40;94326.66;;;25.02;40.60
72308;BME280;60257;42.638;23.376;2022-07-10T11:07:59;94328.81;;;24.73;41.63
72308;BME280;60257;42.638;23.376;2022-07-10T11:13:03;94319.50;;;24.88;40.41
72308;BME280;60257;42.638;23.376;2022-07-10T11:15:30;94323.66;;;24.58;40.87
72308;BME280;60257;42.638;23.376;2022-07-10T11:18:16;94321.88;;;24.27;42.00
72308;BME280;60257;42.638;23.376;2022-07-10T11:20:44;94311.16;;;24.50;40.67
72308;BME280;60257;42.638;23.376;2022-07-10T11:23:41;94309.94;;;24.51;40.72
72308;BME280;60257;42.638;23.376;2022-07-10T11:26:10;94314.72;;;24.26;42.40
72308;BME280;60257;42.638;23.376;2022-07-10T11:28:58;94310.38;;;24.50;40.80
72308;BME280;60257;42.638;23.376;2022-07-10T11:31:26;94307.69;;;24.59;40.20
72308;BME280;60257;42.638;23.376;2022-07-10T11:33:53;94302.19;;;24.68;41.36
72308;BME280;60257;42.638;23.376;2022-07-10T11:36:26;94308.84;;;25.09;40.26
72308;BME280;60257;42.638;23.376;2022-07-10T11:39:07;94309.19;;;24.98;39.65
72308;BME280;60257;42.638;23.376;2022-07-10T11:41:33;94309.13;;;24.76;40.96
72308;BME280;60257;42.638;23.376;2022-07-10T11:44:01;94317.41;;;24.42;41.79
72308;BME280;60257;42.638;23.376;2022-07-10T11:46:28;94304.34;;;24.39;42.20
72308;BME280;60257;42.638;23.376;2022-07-10T11:48:54;94325.91;;;24.26;42.26
72308;BME280;60257;42.638;23.376;2022-07-10T11:56:21;94317.69;;;24.06;41.54
72308;BME280;60257;42.638;23.376;2022-07-10T11:59:07;94313.78;;;24.03;43.07
72308;BME280;60257;42.638;23.376;2022-07-10T12:01:35;94312.63;;;24.42;41.35
72308;BME280;60257;42.638;23.376;2022-07-10T12:04:06;94305.91;;;24.52;41.34
72308;BME280;60257;42.638;23.376;2022-07-10T12:06:44;94307.44;;;24.91;40.56
72308;BME280;60257;42.638;23.376;2022-07-10T12:09:14;94308.06;;;25.08;40.94
72308;BME280;60257;42.638;23.376;2022-07-10T12:11:41;94315.66;;;25.55;39.19
72308;BME280;60257;42.638;23.376;2022-07-10T12:14:19;94309.91;;;25.24;38.95
72308;BME280;60257;42.638;23.376;2022-07-10T12:16:46;94308.84;;;25.43;39.13
72308;BME280;60257;42.638;23.376;2022-07-10T12:19:14;94305.44;;;25.61;38.98
72308;BME280;60257;42.638;23.376;2022-07-10T12:21:45;94307.47;;;25.26;39.92
72308;BME280;60257;42.638;23.376;2022-07-10T12:24:12;94315.78;;;25.17;39.81
72308;BME280;60257;42.638;23.376;2022-07-10T12:26:41;94305.84;;;24.78;40.63
72308;BME280;60257;42.638;23.376;2022-07-10T12:29:23;94313.59;;;24.74;40.68
72308;BME280;60257;42.638;23.376;2022-07-10T12:31:51;94302.84;;;24.85;40.96
72308;BME280;60257;42.638;23.376;2022-07-10T12:34:17;94302.97;;;24.81;39.35
72308;BME280;60257;42.638;23.376;2022-07-10T12:36:52;94300.59;;;24.92;39.35
72308;BME280;60257;42.638;23.376;2022-07-10T12:39:21;94304.75;;;24.75;39.60
72308;BME280;60257;42.638;23.376;2022-07-10T12:42:00;94301.94;;;25.00;38.83
72308;BME280;60257;42.638;23.376;2022-07-10T12:44:38;94305.75;;;25.28;38.03
72308;BME280;60257;42.638;23.376;2022-07-10T12:47:04;94312.06;;;25.41;38.00
72308;BME280;60257;42.638;23.376;2022-07-10T12:50:05;94306.47;;;25.20;38.00
72308;BME280;60257;42.638;23.376;2022-07-10T12:52:38;94305.44;;;25.26;37.64
72308;BME280;60257;42.638;23.376;2022-07-10T12:55:20;94303.75;;;24.94;37.75
72308;BME280;60257;42.638;23.376;2022-07-10T12:57:54;94300.06;;;24.85;38.14
72308;BME280;60257;42.638;23.376;2022-07-10T13:03:08;94305.44;;;24.92;37.17
72308;BME280;60257;42.638;23.376;2022-07-10T13:05:35;94312.13;;;24.69;37.07
72308;BME280;60257;42.638;23.376;2022-07-10T13:08:08;94301.53;;;24.64;37.50
72308;BME280;60257;42.638;23.376;2022-07-10T13:10:36;94305.66;;;24.59;37.27
72308;BME280;60257;42.638;23.376;2022-07-10T13:13:05;94300.66;;;24.67;37.43
72308;BME280;60257;42.638;23.376;2022-07-10T13:15:32;94297.16;;;24.88;35.78
72308;BME280;60257;42.638;23.376;2022-07-10T13:18:05;94303.09;;;24.65;35.96
72308;BME280;60257;42.638;23.376;2022-07-10T13:20:31;94297.53;;;24.52;36.67
72308;BME280;60257;42.638;23.376;2022-07-10T13:22:56;94303.75;;;24.82;34.71
72308;BME280;60257;42.638;23.376;2022-07-10T13:25:21;94294.69;;;24.78;34.01
72308;BME280;60257;42.638;23.376;2022-07-10T13:27:47;94294.69;;;24.78;34.33
72308;BME280;60257;42.638;23.376;2022-07-10T13:30:13;94295.94;;;25.24;33.55
72308;BME280;60257;42.638;23.376;2022-07-10T13:32:38;94303.03;;;25.72;32.21